Tel Aviv, Israel

1:33 AM IDT on August 30, 2016 (GMT +0300)
Ashi Weather Station | | Change Station

Elev 161 ft 32.06 °N, 34.91 °E | Updated 1 minute ago

Scattered Clouds
Scattered Clouds
81.5 °F
Feels Like 89 °F
N
2.0
Wind Variable Wind from SW
Gusts 2.0 mph

Today
High -- | Low -- °F
--% Chance of Precip.
Yesterday
High -- | Low -- °F
Precip. -- in
Pressure 29.86 in
Visibility 6.2 miles
Clouds Scattered Clouds 2800 ft
Heat Index 89 °F
Dew Point 75 °F
Humidity 86%
Rainfall 0.00 in
Snow Depth Not available.
6:14 AM 7:06 PM
Waning Crescent, 6% visible
METAR LLBG 292220Z VRB03KT 9999 SCT028 27/21 Q1011 NOSIG
Pressure 29.86 in
Visibility 6.2 miles
Clouds Scattered Clouds 2800 ft
Heat Index 89 °F
Dew Point 75 °F
Humidity 86%
Rainfall 0.00 in
Snow Depth Not available.
6:14 AM 7:06 PM
Waning Crescent, 6% visible
METAR LLBG 292220Z VRB03KT 9999 SCT028 27/21 Q1011 NOSIG

10-Day Weather Forecast

No radar image for this location.
×

Almanac

Astronomy

Aug. 30, 2016 Rise Set
Actual Time
Civil Twilight
Nautical Twilight
Astronomical Twilight
Moon
Length of Visible Light
Length of Day
Tomorrow will be .
, % of the Moon is Illuminated

Today's Extremes

Country Highs Country Lows

Community

WunderPhotos

Upload Photos

1,935,690 photos uploaded!

WunderBlog® & News

Nearby

Air Quality

  Air Quality AQ Index Pollutant
Not available.

Snow Depth

Station Depth Elevation

Earthquake Activity

City Distance Mag. Time & Date
Minimum magnitude displayed is 2.5.

Coastal Water Temperatures

Place Temperature

Stations

Nearby Weather Stations

Station Location Temp. Windchill Dew Point Humidity Wind Precip. Elev Updated Type